createdAt,value
2017-06-24T00:00:45.096Z,1014.2
2017-06-24T00:01:54.314Z,1014.2
2017-06-24T00:03:03.222Z,1014.16
2017-06-24T00:04:12.437Z,1014.23
2017-06-24T00:05:21.575Z,1014.16
2017-06-24T00:06:31.118Z,1014.17
2017-06-24T00:07:40.007Z,1014.22
2017-06-24T00:08:49.222Z,1014.17
2017-06-24T00:09:58.757Z,1014.16
2017-06-24T00:11:07.744Z,1014.14
2017-06-24T00:12:16.631Z,1014.06
2017-06-24T00:13:25.519Z,1014.13
2017-06-24T00:14:34.414Z,1014.07
2017-06-24T00:15:43.334Z,1014.04
2017-06-24T00:16:52.376Z,1014.07
2017-06-24T00:18:01.275Z,1014.06
2017-06-24T00:19:10.813Z,1014.07
2017-06-24T00:20:20.029Z,1014.06
2017-06-24T00:21:28.918Z,1014.01
2017-06-24T00:22:38.233Z,1013.98
2017-06-24T00:23:47.124Z,1013.96
2017-06-24T00:24:56.338Z,1013.94
2017-06-24T00:26:05.235Z,1013.94
2017-06-24T00:27:14.451Z,1013.96
2017-06-24T00:28:23.341Z,1013.95
2017-06-24T00:29:32.235Z,1013.97
2017-06-24T00:30:41.128Z,1014.02
2017-06-24T00:31:50.343Z,1014.03
2017-06-24T00:32:59.233Z,1014.03
2017-06-24T00:34:08.594Z,1014.02
2017-06-24T00:35:17.478Z,1014
2017-06-24T00:36:26.692Z,1014
2017-06-24T00:37:35.579Z,1014.09
2017-06-24T00:38:44.795Z,1014.04
2017-06-24T00:39:53.833Z,1014.06
2017-06-24T00:41:03.050Z,1014.06
2017-06-24T00:42:12.266Z,1014.04
2017-06-24T00:43:21.479Z,1014.02
2017-06-24T00:44:30.371Z,1014
2017-06-24T00:45:39.983Z,1013.95
2017-06-24T00:46:49.537Z,1013.96
2017-06-24T00:47:58.899Z,1013.95
2017-06-24T00:49:07.787Z,1013.91
2017-06-24T00:50:16.680Z,1013.91
2017-06-24T00:51:25.620Z,1013.93
2017-06-24T00:52:34.836Z,1013.86
2017-06-24T00:53:43.725Z,1013.84
2017-06-24T00:54:52.940Z,1013.88
2017-06-24T00:56:01.830Z,1013.86
2017-06-24T00:57:11.525Z,1013.84
2017-06-24T00:58:20.418Z,1013.84
2017-06-24T00:59:29.304Z,1013.85
2017-06-24T01:00:38.187Z,1013.8
2017-06-24T01:01:47.077Z,1013.78
2017-06-24T01:02:56.293Z,1013.74
2017-06-24T01:04:05.509Z,1013.76
2017-06-24T01:05:46.446Z,1013.78
2017-06-24T01:06:55.661Z,1013.77
2017-06-24T01:08:05.249Z,1013.75
2017-06-24T01:09:14.140Z,1013.71
2017-06-24T01:10:23.027Z,1013.71
2017-06-24T01:11:31.917Z,1013.73
2017-06-24T01:12:40.808Z,1013.76
2017-06-24T01:13:49.901Z,1013.69
2017-06-24T01:14:58.789Z,1013.65
2017-06-24T01:16:07.679Z,1013.65
2017-06-24T01:17:16.571Z,1013.64
2017-06-24T01:18:25.462Z,1013.6
2017-06-24T01:19:34.451Z,1013.59
2017-06-24T01:20:43.990Z,1013.56
2017-06-24T01:21:52.875Z,1013.53
2017-06-24T01:23:01.764Z,1013.56
2017-06-24T01:24:11.306Z,1013.53
2017-06-24T01:25:20.296Z,1013.49
2017-06-24T01:26:29.510Z,1013.52
2017-06-24T01:27:38.722Z,1013.5
2017-06-24T01:28:47.938Z,1013.51
2017-06-24T01:29:56.824Z,1013.5
2017-06-24T01:31:05.764Z,1013.53
2017-06-24T01:32:14.980Z,1013.53
2017-06-24T01:33:23.866Z,1013.53
2017-06-24T01:34:32.756Z,1013.52
2017-06-24T01:35:41.968Z,1013.49
2017-06-24T01:36:51.433Z,1013.49
2017-06-24T01:38:00.325Z,1013.51
2017-06-24T01:39:09.213Z,1013.49
2017-06-24T01:40:18.429Z,1013.47
2017-06-24T01:41:27.316Z,1013.46
2017-06-24T01:42:36.578Z,1013.43
2017-06-24T01:43:45.796Z,1013.44
2017-06-24T01:44:54.682Z,1013.44
2017-06-24T01:46:03.896Z,1013.44
2017-06-24T01:47:13.114Z,1013.54
2017-06-24T01:48:22.308Z,1013.48
2017-06-24T01:49:31.198Z,1013.5
2017-06-24T01:50:40.124Z,1013.49
2017-06-24T01:51:49.338Z,1013.46
2017-06-24T01:52:58.555Z,1013.46
2017-06-24T01:54:07.543Z,1013.44
2017-06-24T01:55:16.434Z,1013.45
2017-06-24T01:56:25.324Z,1013.46
2017-06-24T01:57:34.537Z,1013.47
2017-06-24T01:58:43.745Z,1013.5
2017-06-24T01:59:52.939Z,1013.51
2017-06-24T02:01:02.154Z,1013.49
2017-06-24T02:02:11.366Z,1013.49
2017-06-24T02:03:20.576Z,1013.5
2017-06-24T02:04:29.464Z,1013.49
2017-06-24T02:05:38.506Z,1013.49
2017-06-24T02:06:47.394Z,1013.45
2017-06-24T02:07:56.284Z,1013.45
2017-06-24T02:09:05.176Z,1013.43
2017-06-24T02:10:14.446Z,1013.43
2017-06-24T02:11:23.487Z,1013.42
2017-06-24T02:12:32.375Z,1013.35
2017-06-24T02:13:41.589Z,1013.31
2017-06-24T02:14:50.482Z,1013.3
2017-06-24T02:15:59.397Z,1013.31
2017-06-24T02:17:08.857Z,1013.28
2017-06-24T02:18:17.748Z,1013.29
2017-06-24T02:19:26.635Z,1013.23
2017-06-24T02:20:35.846Z,1013.21
2017-06-24T02:21:45.064Z,1013.2
2017-06-24T02:22:54.276Z,1013.17
2017-06-24T02:24:03.172Z,1013.18
2017-06-24T02:25:12.061Z,1013.12
2017-06-24T02:26:21.274Z,1013.18
2017-06-24T02:27:30.167Z,1013.18
2017-06-24T02:28:39.205Z,1013.16
2017-06-24T02:29:48.093Z,1013.14
2017-06-24T02:30:56.981Z,1013.11
2017-06-24T02:32:05.875Z,1013.06
2017-06-24T02:33:15.089Z,1013.05
2017-06-24T02:34:24.455Z,1013.06
2017-06-24T02:35:34.317Z,1013.05
2017-06-24T02:36:43.537Z,1013.12
2017-06-24T02:37:52.747Z,1013.04
2017-06-24T02:39:02.284Z,1013.04
2017-06-24T02:40:11.801Z,1012.99
2017-06-24T02:41:21.017Z,1013.03
2017-06-24T02:42:30.230Z,1013
2017-06-24T02:43:39.770Z,1013.04
2017-06-24T02:44:48.991Z,1013.01
2017-06-24T02:45:58.205Z,1013.03
2017-06-24T02:47:07.096Z,1013.02
2017-06-24T02:48:15.986Z,1013.01
2017-06-24T02:49:24.873Z,1012.99
2017-06-24T02:50:33.762Z,1012.93
2017-06-24T02:51:43.628Z,1012.96
2017-06-24T02:52:52.529Z,1012.99
2017-06-24T02:54:01.424Z,1012.96
2017-06-24T02:55:10.639Z,1012.96
2017-06-24T02:56:19.854Z,1012.93
2017-06-24T02:57:29.220Z,1012.93
2017-06-24T02:58:38.110Z,1012.95
2017-06-24T02:59:47.325Z,1012.95
2017-06-24T03:00:56.214Z,1012.93
2017-06-24T03:02:05.103Z,1012.92
2017-06-24T03:03:14.789Z,1012.94
2017-06-24T03:04:24.005Z,1012.96
2017-06-24T03:05:33.552Z,1012.93
2017-06-24T03:06:42.440Z,1012.93
2017-06-24T03:07:51.325Z,1012.91
2017-06-24T03:09:00.610Z,1012.92
2017-06-24T03:10:10.149Z,1012.9
2017-06-24T03:11:19.041Z,1012.88
2017-06-24T03:12:27.937Z,1012.87
2017-06-24T03:13:37.149Z,1012.91
2017-06-24T03:14:46.089Z,1012.92
2017-06-24T03:15:54.981Z,1012.89
2017-06-24T03:17:03.872Z,1012.89
2017-06-24T03:18:13.094Z,1012.83
2017-06-24T03:19:22.311Z,1012.84
2017-06-24T03:20:31.250Z,1012.86
2017-06-24T03:21:40.138Z,1012.81
2017-06-24T03:22:49.685Z,1012.75
2017-06-24T03:23:58.902Z,1012.76
2017-06-24T03:25:08.128Z,1012.74
2017-06-24T03:26:17.166Z,1012.77
2017-06-24T03:27:26.057Z,1012.77
2017-06-24T03:28:34.944Z,1012.73
2017-06-24T03:29:43.832Z,1012.75
2017-06-24T03:30:53.059Z,1012.77
2017-06-24T03:32:01.947Z,1012.77
2017-06-24T03:33:11.162Z,1012.81
2017-06-24T03:34:20.051Z,1012.78
2017-06-24T03:35:28.938Z,1012.76
2017-06-24T03:36:37.829Z,1012.81
2017-06-24T03:37:46.871Z,1012.73
2017-06-24T03:38:55.759Z,1012.71
2017-06-24T03:40:04.649Z,1012.7
2017-06-24T03:41:13.539Z,1012.69
2017-06-24T03:42:22.432Z,1012.72
2017-06-24T03:43:31.693Z,1012.7
2017-06-24T03:44:40.909Z,1012.63
2017-06-24T03:45:50.124Z,1012.63
2017-06-24T03:46:59.022Z,1012.59
2017-06-24T03:48:08.262Z,1012.65
2017-06-24T03:49:17.251Z,1012.55
2017-06-24T03:50:26.789Z,1012.55
2017-06-24T03:51:35.680Z,1012.55
2017-06-24T03:52:44.569Z,1012.53
2017-06-24T03:53:53.460Z,1012.56
2017-06-24T03:55:02.975Z,1012.53
2017-06-24T03:56:12.190Z,1012.52
2017-06-24T03:57:21.399Z,1012.5
2017-06-24T03:58:30.613Z,1012.47
2017-06-24T03:59:39.827Z,1012.51
2017-06-24T04:00:49.208Z,1012.5
2017-06-24T04:01:58.102Z,1012.45
2017-06-24T04:03:07.640Z,1012.47
2017-06-24T04:04:16.530Z,1012.45
2017-06-24T04:05:25.422Z,1012.45
2017-06-24T04:06:34.410Z,1012.42
2017-06-24T04:07:43.296Z,1012.4
2017-06-24T04:08:52.189Z,1012.42
2017-06-24T04:10:01.077Z,1012.43
2017-06-24T04:11:10.290Z,1012.4
2017-06-24T04:12:19.555Z,1012.46
2017-06-24T04:13:28.456Z,1012.44
2017-06-24T04:14:37.344Z,1012.45
2017-06-24T04:15:46.233Z,1012.42
2017-06-24T04:16:55.448Z,1012.39
2017-06-24T04:18:04.490Z,1012.38
2017-06-24T04:19:13.377Z,1012.41
2017-06-24T04:20:22.265Z,1012.37
2017-06-24T04:21:31.479Z,1012.35
2017-06-24T04:22:40.379Z,1012.39
2017-06-24T04:23:49.431Z,1012.32
2017-06-24T04:24:58.321Z,1012.33
2017-06-24T04:26:07.537Z,1012.35
2017-06-24T04:27:16.425Z,1012.32
2017-06-24T04:28:25.314Z,1012.36
2017-06-24T04:29:34.351Z,1012.31
2017-06-24T04:30:43.241Z,1012.27
2017-06-24T04:31:52.134Z,1012.22
2017-06-24T04:33:01.349Z,1012.23
2017-06-24T04:34:10.886Z,1012.25
2017-06-24T04:35:19.828Z,1012.24
2017-06-24T04:36:28.717Z,1012.23
2017-06-24T04:37:37.932Z,1012.22
2017-06-24T04:38:47.146Z,1012.24
2017-06-24T04:39:56.362Z,1012.23
2017-06-24T04:41:05.949Z,1012.2
2017-06-24T04:42:15.171Z,1012.2
2017-06-24T04:43:24.066Z,1012.14
2017-06-24T04:44:32.959Z,1012.17
2017-06-24T04:45:42.172Z,1012.15
2017-06-24T04:46:51.068Z,1012.13
2017-06-24T04:48:00.057Z,1012.15
2017-06-24T04:49:08.946Z,1012.19
2017-06-24T04:50:18.159Z,1012.15
2017-06-24T04:51:27.051Z,1012.17
2017-06-24T04:52:36.370Z,1012.12
2017-06-24T04:53:45.587Z,1012.08
2017-06-24T04:54:54.477Z,1012.08
2017-06-24T04:56:03.374Z,1012.04
2017-06-24T04:57:12.264Z,1012.08
2017-06-24T04:58:21.482Z,1012.06
2017-06-24T04:59:30.370Z,1012.07
2017-06-24T05:00:39.582Z,1012.05
2017-06-24T05:01:48.473Z,1012.07
2017-06-24T05:02:57.702Z,1012.06
2017-06-24T05:04:06.926Z,1012.06
2017-06-24T05:05:15.838Z,1012.11
2017-06-24T05:06:25.380Z,1012.08
2017-06-24T05:07:34.269Z,1012.09
2017-06-24T05:08:43.157Z,1012.11
2017-06-24T05:09:52.672Z,1012.12
2017-06-24T05:11:01.562Z,1012.08
2017-06-24T05:12:10.454Z,1012.09
2017-06-24T05:13:19.666Z,1012.07
2017-06-24T05:14:28.559Z,1012.04
2017-06-24T05:15:37.549Z,1012.03
2017-06-24T05:16:46.765Z,1012.05
2017-06-24T05:17:55.660Z,1012.03
2017-06-24T05:19:04.877Z,1012.05
2017-06-24T05:20:13.769Z,1012.05
2017-06-24T05:21:22.713Z,1012.1
2017-06-24T05:22:31.602Z,1012.04
2017-06-24T05:23:40.488Z,1012.1
2017-06-24T05:24:49.378Z,1012.08
2017-06-24T05:25:58.266Z,1012.13
2017-06-24T05:27:07.159Z,1012.12
2017-06-24T05:28:16.053Z,1012.11
2017-06-24T05:29:24.969Z,1012.19
2017-06-24T05:30:34.185Z,1012.1
2017-06-24T05:31:43.403Z,1012.24
2017-06-24T05:32:52.448Z,1012.11
2017-06-24T05:34:01.660Z,1012.06
2017-06-24T05:35:10.547Z,1012.1
2017-06-24T05:36:19.441Z,1012.12
2017-06-24T05:37:28.334Z,1012.1
2017-06-24T05:38:37.556Z,1012.16
2017-06-24T05:39:46.443Z,1012.16
2017-06-24T05:40:55.658Z,1012.17
2017-06-24T05:42:04.872Z,1012.13
2017-06-24T05:43:13.760Z,1012.08
2017-06-24T05:44:23.455Z,1012.06
2017-06-24T05:45:32.670Z,1012.04
2017-06-24T05:46:41.886Z,1012.1
2017-06-24T05:47:50.772Z,1012.1
2017-06-24T05:48:59.988Z,1012.08
2017-06-24T05:50:08.981Z,1012.11
2017-06-24T05:51:17.869Z,1012.1
2017-06-24T05:52:26.758Z,1012.09
2017-06-24T05:53:35.971Z,1012.1
2017-06-24T05:54:45.187Z,1012.09
2017-06-24T05:55:54.105Z,1012.05
2017-06-24T05:57:03.001Z,1012.08
2017-06-24T05:58:11.889Z,1012.1
2017-06-24T05:59:20.776Z,1012.04
2017-06-24T06:00:29.993Z,1012.1
2017-06-24T06:01:38.886Z,1012.05
2017-06-24T06:02:47.771Z,1012.08
2017-06-24T06:03:57.310Z,1012.07
2017-06-24T06:05:07.197Z,1012.09
2017-06-24T06:06:16.415Z,1012.08
2017-06-24T06:07:25.793Z,1012.1
2017-06-24T06:08:34.684Z,1012.12
2017-06-24T06:09:43.574Z,1012.06
2017-06-24T06:10:52.798Z,1012.04
2017-06-24T06:12:02.015Z,1012
2017-06-24T06:13:11.280Z,1012
2017-06-24T06:14:20.492Z,1012.03
2017-06-24T06:15:29.377Z,1012.02
2017-06-24T06:16:38.267Z,1012.04
2017-06-24T06:17:47.165Z,1012.05
2017-06-24T06:18:56.205Z,1012.01
2017-06-24T06:20:05.425Z,1012.01
2017-06-24T06:21:14.969Z,1012.02
2017-06-24T06:22:23.856Z,1012.03
2017-06-24T06:23:33.079Z,1012.02
2017-06-24T06:24:42.270Z,1012.03
2017-06-24T06:25:51.160Z,1012
2017-06-24T06:27:00.051Z,1012.01
2017-06-24T06:28:09.269Z,1012
2017-06-24T06:29:18.160Z,1012.07
2017-06-24T06:30:27.573Z,1012
2017-06-24T06:31:36.461Z,1012.04
2017-06-24T06:32:45.355Z,1012.1
2017-06-24T06:33:54.569Z,1012.08
2017-06-24T06:35:03.456Z,1012.06
2017-06-24T06:36:13.293Z,1012.13
2017-06-24T06:37:22.833Z,1012.14
2017-06-24T06:38:31.721Z,1012.13
2017-06-24T06:39:40.616Z,1012.19
2017-06-24T06:40:49.504Z,1012.15
2017-06-24T06:41:58.443Z,1012.16
2017-06-24T06:43:07.337Z,1012.14
2017-06-24T06:44:16.230Z,1012.14
2017-06-24T06:45:25.448Z,1012.19
2017-06-24T06:46:34.662Z,1012.2
2017-06-24T06:47:44.026Z,1012.24
2017-06-24T06:48:52.916Z,1012.23
2017-06-24T06:50:01.806Z,1012.26
2017-06-24T06:51:11.023Z,1012.34
2017-06-24T06:52:20.234Z,1012.24
2017-06-24T06:53:29.272Z,1012.35
2017-06-24T06:54:38.165Z,1012.35
2017-06-24T06:55:47.061Z,1012.34
2017-06-24T06:56:55.952Z,1012.36
2017-06-24T06:58:04.842Z,1012.35
2017-06-24T06:59:13.742Z,1012.33
2017-06-24T07:00:22.631Z,1012.35
2017-06-24T07:01:31.515Z,1012.35
2017-06-24T07:02:40.401Z,1012.34
2017-06-24T07:03:49.289Z,1012.34
2017-06-24T07:04:58.329Z,1012.33
2017-06-24T07:06:07.221Z,1012.35
2017-06-24T07:07:16.111Z,1012.4
2017-06-24T07:08:25.010Z,1012.34
2017-06-24T07:09:33.907Z,1012.36
2017-06-24T07:10:42.948Z,1012.38
2017-06-24T07:11:52.165Z,1012.4
2017-06-24T07:13:01.053Z,1012.39
2017-06-24T07:14:10.267Z,1012.35
2017-06-24T07:15:19.487Z,1012.33
2017-06-24T07:16:28.954Z,1012.34
2017-06-24T07:17:38.165Z,1012.36
2017-06-24T07:18:47.052Z,1012.3
2017-06-24T07:19:55.946Z,1012.3
2017-06-24T07:21:05.167Z,1012.34
2017-06-24T07:22:14.532Z,1012.32
2017-06-24T07:23:23.750Z,1012.32
2017-06-24T07:24:32.966Z,1012.3
2017-06-24T07:25:41.858Z,1012.31
2017-06-24T07:26:51.082Z,1012.31
2017-06-24T07:27:59.973Z,1012.27
2017-06-24T07:29:09.513Z,1012.25
2017-06-24T07:30:18.400Z,1012.24
2017-06-24T07:31:27.298Z,1012.27
2017-06-24T07:32:36.191Z,1012.35
2017-06-24T07:33:45.245Z,1012.35
2017-06-24T07:34:54.133Z,1012.31
2017-06-24T07:36:03.351Z,1012.31
2017-06-24T07:37:12.296Z,1012.26
2017-06-24T07:38:21.186Z,1012.27
2017-06-24T07:39:30.549Z,1012.26
2017-06-24T07:40:39.438Z,1012.28
2017-06-24T07:41:48.651Z,1012.21
2017-06-24T07:42:57.868Z,1012.24
2017-06-24T07:44:07.734Z,1012.26
2017-06-24T07:45:16.921Z,1012.28
2017-06-24T07:46:25.810Z,1012.31
2017-06-24T07:47:34.700Z,1012.33
2017-06-24T07:48:43.592Z,1012.31
2017-06-24T07:49:52.483Z,1012.34
2017-06-24T07:51:02.172Z,1012.28
2017-06-24T07:52:11.408Z,1012.26
2017-06-24T07:53:20.628Z,1012.28
2017-06-24T07:54:29.845Z,1012.2
2017-06-24T07:55:39.059Z,1012.22
2017-06-24T07:56:48.100Z,1012.27
2017-06-24T07:57:57.319Z,1012.24
2017-06-24T07:59:06.535Z,1012.24
2017-06-24T08:00:15.426Z,1012.21
2017-06-24T08:01:24.645Z,1012.21
2017-06-24T08:02:33.908Z,1012.17
2017-06-24T08:03:42.799Z,1012.19
2017-06-24T08:04:52.012Z,1012.18
2017-06-24T08:06:00.904Z,1012.22
2017-06-24T08:07:09.800Z,1012.21
2017-06-24T08:08:19.435Z,1012.17
2017-06-24T08:09:28.649Z,1012.13
2017-06-24T08:10:37.539Z,1012.13
2017-06-24T08:11:46.424Z,1012.18
2017-06-24T08:12:55.644Z,1012.15
2017-06-24T08:14:04.686Z,1012.2
2017-06-24T08:15:13.907Z,1012.16
2017-06-24T08:16:22.794Z,1012.15
2017-06-24T08:17:32.010Z,1012.13
2017-06-24T08:18:40.904Z,1012.15
2017-06-24T08:19:49.941Z,1012.12
2017-06-24T08:20:58.833Z,1012.18
2017-06-24T08:22:07.727Z,1012.17
2017-06-24T08:23:17.269Z,1012.18
2017-06-24T08:24:26.488Z,1012.13
2017-06-24T08:25:35.679Z,1012.12
2017-06-24T08:26:44.566Z,1012.14
2017-06-24T08:27:53.455Z,1012.14
2017-06-24T08:29:02.340Z,1012.22
2017-06-24T08:30:11.234Z,1012.14
2017-06-24T08:31:20.451Z,1012.14
2017-06-24T08:32:30.002Z,1012.14
2017-06-24T08:33:38.895Z,1012.18
2017-06-24T08:34:48.108Z,1012.19
2017-06-24T08:35:57.323Z,1012.19
2017-06-24T08:37:06.717Z,1012.19
2017-06-24T08:38:15.611Z,1012.17
2017-06-24T08:39:25.477Z,1012.18
2017-06-24T08:40:34.694Z,1012.19
2017-06-24T08:41:43.909Z,1012.26
2017-06-24T08:42:52.852Z,1012.21
2017-06-24T08:44:01.744Z,1012.21
2017-06-24T08:45:10.633Z,1012.24
2017-06-24T08:46:19.522Z,1012.16
2017-06-24T08:47:28.746Z,1012.23
2017-06-24T08:48:37.688Z,1012.22
2017-06-24T08:49:46.576Z,1012.27
2017-06-24T08:50:55.793Z,1012.24
2017-06-24T08:52:05.010Z,1012.18
2017-06-24T08:53:13.902Z,1012.19
2017-06-24T08:54:23.544Z,1012.23
2017-06-24T08:55:32.437Z,1012.21
2017-06-24T08:56:41.327Z,1012.19
2017-06-24T08:57:50.542Z,1012.14
2017-06-24T08:58:59.437Z,1012.1
2017-06-24T09:00:08.481Z,1012.18
2017-06-24T09:01:17.714Z,1012.15
2017-06-24T09:02:26.604Z,1012.18
2017-06-24T09:03:35.493Z,1012.14
2017-06-24T09:04:44.382Z,1012.14
2017-06-24T09:05:53.522Z,1012.12
2017-06-24T09:07:02.419Z,1012.16
2017-06-24T09:08:11.643Z,1012.13
2017-06-24T09:09:21.190Z,1012.15
2017-06-24T09:10:30.079Z,1012.19
2017-06-24T09:11:39.015Z,1012.16
2017-06-24T09:12:47.903Z,1012.13
2017-06-24T09:13:57.437Z,1012.08
2017-06-24T09:15:06.333Z,1012.2
2017-06-24T09:16:15.230Z,1012.15
2017-06-24T09:17:24.927Z,1012.21
2017-06-24T09:18:34.467Z,1012.13
2017-06-24T09:19:43.356Z,1012.11
2017-06-24T09:20:52.570Z,1012.11
2017-06-24T09:22:01.460Z,1012.14
2017-06-24T09:23:10.354Z,1012.12
2017-06-24T09:24:19.573Z,1012.16
2017-06-24T09:25:28.466Z,1012.13
2017-06-24T09:26:37.359Z,1012.15
2017-06-24T09:27:46.577Z,1012.13
2017-06-24T09:28:55.568Z,1012.1
2017-06-24T09:30:04.785Z,1012.14
2017-06-24T09:31:14.003Z,1012.13
2017-06-24T09:32:22.894Z,1012.14
2017-06-24T09:33:32.109Z,1012.13
2017-06-24T09:34:41.095Z,1012.08
2017-06-24T09:35:49.985Z,1012.05
2017-06-24T09:36:59.206Z,1012.05
2017-06-24T09:38:08.100Z,1012.02
2017-06-24T09:39:16.990Z,1012.05
2017-06-24T09:40:26.357Z,1012.01
2017-06-24T09:41:35.253Z,1012.06
2017-06-24T09:42:44.472Z,1012.1
2017-06-24T09:43:53.684Z,1012.11
2017-06-24T09:45:02.572Z,1012.07
2017-06-24T09:46:11.888Z,1012.02
2017-06-24T09:47:20.780Z,1012.1
2017-06-24T09:48:29.995Z,1012.01
2017-06-24T09:49:38.891Z,1012.07
2017-06-24T09:50:47.785Z,1012.17
2017-06-24T09:51:56.730Z,1012.11
2017-06-24T09:53:05.943Z,1012.04
2017-06-24T09:54:14.828Z,1012.05
2017-06-24T09:55:24.041Z,1012.03
2017-06-24T09:56:33.575Z,1012
2017-06-24T09:57:42.516Z,1012.06
2017-06-24T09:58:51.730Z,1012.07
2017-06-24T10:00:00.952Z,1012.07
2017-06-24T10:01:09.841Z,1012.05
2017-06-24T10:02:18.729Z,1012.07
2017-06-24T10:03:27.997Z,1012.03
2017-06-24T10:04:36.889Z,1012.02
2017-06-24T10:05:46.102Z,1011.95
2017-06-24T10:06:55.003Z,1012.07
2017-06-24T10:08:04.221Z,1012.05
2017-06-24T10:09:13.411Z,1012.06
2017-06-24T10:10:22.303Z,1012.15
2017-06-24T10:11:31.522Z,1012.16
2017-06-24T10:12:40.417Z,1012.02
2017-06-24T10:13:49.638Z,1012.09
2017-06-24T10:14:59.008Z,1012.1
2017-06-24T10:16:08.223Z,1012.09
2017-06-24T10:17:17.115Z,1012.09
2017-06-24T10:18:26.027Z,1012.04
2017-06-24T10:19:35.236Z,1012.05
2017-06-24T10:20:44.224Z,1011.95
2017-06-24T10:21:53.112Z,1012.03
2017-06-24T10:23:02.332Z,1012.06
2017-06-24T10:24:12.202Z,1012.02
2017-06-24T10:25:21.091Z,1012.05
2017-06-24T10:26:30.463Z,1012.01
2017-06-24T10:27:39.675Z,1012.03
2017-06-24T10:28:48.893Z,1012.02
2017-06-24T10:29:57.782Z,1012
2017-06-24T10:31:06.672Z,1011.99
2017-06-24T10:32:16.512Z,1012.03
2017-06-24T10:33:25.405Z,1012.03
2017-06-24T10:34:34.626Z,1012.13
2017-06-24T10:35:43.516Z,1012.15
2017-06-24T10:36:52.412Z,1012.11
2017-06-24T10:38:01.452Z,1012.1
2017-06-24T10:39:10.345Z,1012.06
2017-06-24T10:40:19.555Z,1012.08
2017-06-24T10:41:28.446Z,1012.06
2017-06-24T10:42:37.341Z,1012.11
2017-06-24T10:43:46.386Z,1012.16
2017-06-24T10:44:55.601Z,1012.11
2017-06-24T10:46:04.819Z,1012.06
2017-06-24T10:47:14.035Z,1012.08
2017-06-24T10:48:23.251Z,1012.08
2017-06-24T10:49:32.522Z,1012.16
2017-06-24T10:50:41.412Z,1012.14
2017-06-24T10:51:50.301Z,1012.12
2017-06-24T10:52:59.524Z,1012.11
2017-06-24T10:54:08.418Z,1012.17
2017-06-24T10:55:17.463Z,1012.1
2017-06-24T10:56:26.352Z,1012.07
2017-06-24T10:57:35.244Z,1012.12
2017-06-24T10:58:44.458Z,1012.08
2017-06-24T10:59:53.679Z,1012.31
2017-06-24T11:01:03.045Z,1012.18
2017-06-24T11:02:12.589Z,1012.21
2017-06-24T11:03:21.810Z,1012.15
2017-06-24T11:04:31.350Z,1012.15
2017-06-24T11:05:40.241Z,1012.16
2017-06-24T11:06:49.182Z,1012.16
2017-06-24T11:07:58.395Z,1012.08
2017-06-24T11:09:07.614Z,1012.12
2017-06-24T11:10:16.828Z,1012.14
2017-06-24T11:11:26.056Z,1012.1
2017-06-24T11:12:35.098Z,1012.17
2017-06-24T11:13:44.642Z,1012.13
2017-06-24T11:14:53.865Z,1012.14
2017-06-24T11:16:02.760Z,1012.12
2017-06-24T11:17:11.970Z,1012.11
2017-06-24T11:18:20.907Z,1012.18
2017-06-24T11:19:29.799Z,1012.15
2017-06-24T11:20:38.698Z,1012.1
2017-06-24T11:21:47.587Z,1012.21
2017-06-24T11:22:56.804Z,1012.08
2017-06-24T11:24:06.223Z,1012.1
2017-06-24T11:25:15.116Z,1012.12
2017-06-24T11:26:24.013Z,1012.15
2017-06-24T11:27:32.906Z,1012.17
2017-06-24T11:28:41.799Z,1012.12
2017-06-24T11:29:51.161Z,1012.11
2017-06-24T11:31:00.046Z,1012.13
2017-06-24T11:32:08.934Z,1012.17
2017-06-24T11:33:17.830Z,1012.12
2017-06-24T11:34:26.720Z,1012.1
2017-06-24T11:35:36.085Z,1012.11
2017-06-24T11:36:45.299Z,1012.14
2017-06-24T11:37:54.521Z,1012.18
2017-06-24T11:39:03.410Z,1012.1
2017-06-24T11:40:12.301Z,1012.17
2017-06-24T11:41:21.295Z,1012.09
2017-06-24T11:42:30.512Z,1012.14
2017-06-24T11:43:39.429Z,1012.16
2017-06-24T11:44:48.324Z,1012.17
2017-06-24T11:45:57.215Z,1012.16
2017-06-24T11:47:06.258Z,1012.18
2017-06-24T11:48:15.159Z,1012.13
2017-06-24T11:49:24.048Z,1012.15
2017-06-24T11:50:32.939Z,1012.17
2017-06-24T11:51:41.830Z,1012.19
2017-06-24T11:52:51.196Z,1012.17
2017-06-24T11:54:00.087Z,1012.18
2017-06-24T11:55:09.628Z,1012.22
2017-06-24T11:56:18.847Z,1012.17
2017-06-24T11:57:27.736Z,1012.23
2017-06-24T11:58:36.932Z,1012.18
2017-06-24T11:59:46.147Z,1012.23
2017-06-24T12:00:55.358Z,1012.25
2017-06-24T12:02:04.578Z,1012.19
2017-06-24T12:03:13.798Z,1012.24
2017-06-24T12:04:23.163Z,1012.25
2017-06-24T12:05:32.052Z,1012.24
2017-06-24T12:06:40.948Z,1012.24
2017-06-24T12:07:49.839Z,1012.27
2017-06-24T12:08:59.051Z,1012.27
2017-06-24T12:10:08.191Z,1012.25
2017-06-24T12:11:17.087Z,1012.28
2017-06-24T12:12:26.306Z,1012.28
2017-06-24T12:13:35.195Z,1012.24
2017-06-24T12:14:44.736Z,1012.25
2017-06-24T12:15:53.731Z,1012.27
2017-06-24T12:17:02.953Z,1012.35
2017-06-24T12:18:11.843Z,1012.32
2017-06-24T12:19:20.736Z,1012.28
2017-06-24T12:20:29.632Z,1012.31
2017-06-24T12:21:38.678Z,1012.31
2017-06-24T12:22:47.575Z,1012.29
2017-06-24T12:23:57.120Z,1012.37
2017-06-24T12:25:06.338Z,1012.32
2017-06-24T12:26:15.231Z,1012.34
2017-06-24T12:27:24.645Z,1012.32
2017-06-24T12:28:33.534Z,1012.3
2017-06-24T12:29:42.422Z,1012.4
2017-06-24T12:30:51.640Z,1012.46
2017-06-24T12:32:00.570Z,1012.34
2017-06-24T12:33:09.938Z,1012.46
2017-06-24T12:34:19.156Z,1012.45
2017-06-24T12:35:28.047Z,1012.5
2017-06-24T12:36:36.944Z,1012.5
2017-06-24T12:37:45.848Z,1012.49
2017-06-24T12:38:54.893Z,1012.5
2017-06-24T12:40:04.757Z,1012.53
2017-06-24T12:41:13.975Z,1012.47
2017-06-24T12:42:22.871Z,1012.48
2017-06-24T12:43:31.759Z,1012.51
2017-06-24T12:44:41.027Z,1012.54
2017-06-24T12:45:49.919Z,1012.51
2017-06-24T12:46:58.813Z,1012.51
2017-06-24T12:48:07.709Z,1012.52
2017-06-24T12:49:16.924Z,1012.56
2017-06-24T12:50:25.817Z,1012.54
2017-06-24T12:51:35.030Z,1012.55
2017-06-24T12:52:43.922Z,1012.55
2017-06-24T12:53:52.812Z,1012.53
2017-06-24T12:55:01.705Z,1012.53
2017-06-24T12:56:10.971Z,1012.5
2017-06-24T12:57:19.861Z,1012.55
2017-06-24T12:58:28.753Z,1012.46
2017-06-24T12:59:37.967Z,1012.49
2017-06-24T13:00:46.857Z,1012.51
2017-06-24T13:01:55.800Z,1012.55
2017-06-24T13:03:04.690Z,1012.52
2017-06-24T13:04:13.588Z,1012.52
2017-06-24T13:05:22.484Z,1012.53
2017-06-24T13:06:31.374Z,1012.49
2017-06-24T13:07:40.888Z,1012.59
2017-06-24T13:08:49.775Z,1012.58
2017-06-24T13:09:58.681Z,1012.49
2017-06-24T13:11:07.900Z,1012.55
2017-06-24T13:12:16.794Z,1012.67
2017-06-24T13:13:26.058Z,1012.57
2017-06-24T13:14:34.952Z,1012.61
2017-06-24T13:15:43.845Z,1012.57
2017-06-24T13:16:52.738Z,1012.54
2017-06-24T13:18:01.631Z,1012.58
2017-06-24T13:19:10.627Z,1012.48
2017-06-24T13:20:19.842Z,1012.62
2017-06-24T13:21:29.052Z,1012.64
2017-06-24T13:22:37.962Z,1012.51
2017-06-24T13:23:46.857Z,1012.56
2017-06-24T13:24:55.748Z,1012.63
2017-06-24T13:26:04.634Z,1012.58
2017-06-24T13:27:13.527Z,1012.54
2017-06-24T13:28:23.391Z,1012.56
2017-06-24T13:29:32.277Z,1012.55
2017-06-24T13:30:41.566Z,1012.57
2017-06-24T13:31:50.463Z,1012.54
2017-06-24T13:32:59.365Z,1012.64
2017-06-24T13:34:08.582Z,1012.56
2017-06-24T13:35:17.471Z,1012.53
2017-06-24T13:36:26.838Z,1012.52
2017-06-24T13:37:35.730Z,1012.5
2017-06-24T13:38:44.621Z,1012.43
2017-06-24T13:39:53.513Z,1012.42
2017-06-24T13:41:02.731Z,1012.51
2017-06-24T13:42:12.001Z,1012.51
2017-06-24T13:43:21.225Z,1012.45
2017-06-24T13:44:30.118Z,1012.42
2017-06-24T13:45:39.007Z,1012.41
2017-06-24T13:46:48.219Z,1012.44
2017-06-24T13:47:57.168Z,1012.43
2017-06-24T13:49:06.066Z,1012.41
2017-06-24T13:50:14.955Z,1012.37
2017-06-24T13:51:24.168Z,1012.35
2017-06-24T13:52:33.397Z,1012.37
2017-06-24T13:53:42.341Z,1012.35
2017-06-24T13:54:51.558Z,1012.31
2017-06-24T13:56:00.774Z,1012.3
2017-06-24T13:57:09.990Z,1012.3
2017-06-24T13:58:18.892Z,1012.3
2017-06-24T13:59:27.984Z,1012.33